• Join FlightAware (Why Join?)
  • Login
  • US Flag 
07:44PM EDT


 

Airport Tracker/Info


-or-


 

Live Flight TrackerFlight Track Log ✈ SAS676 ✈ 11-Jul-2013 ✈ EDDF / FRA - EKCH / CPH

Flight Track Log - Related Links

Times and Time Zones

All times are in EDT time to prevent confusion due to time zone crossing. See the SAS676 flight status page for this flight to view local times or setup timezone preferences in your user account.

Time Position Orientation Groundspeed Altitude Reporting Facility
EDT Latitude Longitude Course Direction KTS MPH feet Rate Location/Type
11:54AM 50.5054 8.8529 22° Northeast  Level Estimated
11:55AM 50.6011 8.9156 23° Northeast  Level Estimated
11:56AM 50.6967 8.9785 23° Northeast  Level Estimated
11:57AM 50.7924 9.0418 23° Northeast  Level Estimated
11:58AM 50.8879 9.1053 23° Northeast  Level Estimated
11:59AM 50.9835 9.1690 23° Northeast  Level Estimated
12:00PM 51.0790 9.2330 23° Northeast  Level Estimated
12:01PM 51.1745 9.2973 23° Northeast  Level Estimated
12:02PM 51.2700 9.3618 23° Northeast  Level Estimated
12:03PM 51.3654 9.4266 23° Northeast  Level Estimated
12:04PM 51.4608 9.4917 23° Northeast  Level Estimated
12:05PM 51.5561 9.5570 23° Northeast  Level Estimated
12:06PM 51.6514 9.6226 23° Northeast  Level Estimated
12:07PM 51.7467 9.6885 23° Northeast  Level Estimated
12:08PM 51.8419 9.7547 23° Northeast  Level Estimated
12:09PM 51.9371 9.8211 23° Northeast  Level Estimated
12:10PM 52.0322 9.8879 23° Northeast  Level Estimated
12:11PM 52.1274 9.9549 23° Northeast  Level Estimated
12:12PM 52.2225 10.0222 23° Northeast  Level Estimated
12:13PM 52.3175 10.0898 23° Northeast  Level Estimated
12:14PM 52.4125 10.1577 24° Northeast  Level Estimated
12:15PM 52.5075 10.2259 24° Northeast  Level Estimated
12:16PM 52.6024 10.2943 24° Northeast  Level Estimated
12:17PM 52.6973 10.3631 24° Northeast  Level Estimated
12:18PM 52.7921 10.4322 24° Northeast  Level Estimated
12:19PM 52.8869 10.5016 24° Northeast  Level Estimated
12:20PM 52.9817 10.5712 24° Northeast  Level Estimated
12:21PM 53.0764 10.6412 24° Northeast  Level Estimated
12:22PM 53.1711 10.7115 24° Northeast  Level Estimated
12:23PM 53.2658 10.7821 24° Northeast  Level Estimated
12:24PM 53.3604 10.8530 24° Northeast  Level Estimated
12:25PM 53.4637 10.9309 24° Northeast  Level Estimated
12:26PM 53.5669 11.0091 24° Northeast  Level Estimated
12:27PM 53.6701 11.0877 24° Northeast  Level Estimated
12:28PM 53.7733 11.1667 24° Northeast  Level Estimated
12:29PM 53.8764 11.2461 24° Northeast  Level Estimated
12:30PM 53.9794 11.3259 24° Northeast  Level Estimated
12:31PM 54.0824 11.4060 25° Northeast  Level Estimated
12:32PM 54.1854 11.4866 25° Northeast  Level Estimated
12:33PM 54.2883 11.5676 25° Northeast  Level Estimated
12:34PM 54.3911 11.6489 25° Northeast  Level Estimated
12:35PM 54.4939 11.7307 25° Northeast  Level Estimated
12:36PM 54.5966 11.8129 25° Northeast  Level Estimated
12:37PM 54.6993 11.8955 25° Northeast  Level Estimated
12:38PM 54.8019 11.9786 25° Northeast  Level Estimated
12:39PM 54.9045 12.0620 25° Northeast  Level Estimated
12:40PM 55.0070 12.1459 25° Northeast  Level Estimated
12:41PM 55.1094 12.2302 25° Northeast  Level Estimated
12:42PM 55.2118 12.3150 25° Northeast  Level Estimated
12:43PM 55.3141 12.4002 25° Northeast  Level Estimated
12:44PM 55.4164 12.4858 25° Northeast  Level Estimated
12:45PM 55.5186 12.5718 25° Northeast  Level Estimated
12:46PM 55.6179 12.6560 26° Northeast  Level Estimated
12:47PM 55.6179 12.6560 159° South  Level Estimated
12:48PM 55.6179 12.6560 159° South  Level Estimated
12:49PM 55.6179 12.6560 159° South  Level Estimated
12:50PM 55.6179 12.6560 159° South  Level Estimated
12:51PM 55.6179 12.6560 159° South  Level Estimated
12:52PM 55.6179 12.6560 159° South  Level Estimated
12:53PM 55.6179 12.6560 159° South  Level Estimated
12:54PM 55.6179 12.6560 159° South  Level Estimated
12:55PM 55.6179 12.6560 159° South  Level Estimated
12:56PM 55.6179 12.6560 159° South  Level Estimated
12:57PM 55.6179 12.6560 159° South  Level Estimated
12:58PM 55.6179 12.6560 159° South  Level Estimated
12:59PM 55.6179 12.6560 159° South  Level Estimated